createdAt,value
2019-04-28T00:00:03.963Z,992.29
2019-04-28T00:02:36.184Z,992.27
2019-04-28T00:03:04.779Z,992.32
2019-04-28T00:04:05.718Z,992.32
2019-04-28T00:05:04.167Z,992.25
2019-04-28T00:06:03.740Z,992.26
2019-04-28T00:07:03.677Z,992.32
2019-04-28T00:08:03.829Z,992.36
2019-04-28T00:09:03.701Z,992.30
2019-04-28T00:10:14.257Z,992.29
2019-04-28T00:11:06.459Z,992.23
2019-04-28T00:12:03.747Z,992.22
2019-04-28T00:13:05.378Z,992.24
2019-04-28T00:14:03.648Z,992.20
2019-04-28T00:15:03.896Z,992.22
2019-04-28T00:16:03.618Z,992.21
2019-04-28T00:17:04.429Z,992.26
2019-04-28T00:18:04.211Z,992.24
2019-04-28T00:19:04.661Z,992.23
2019-04-28T00:20:04.198Z,992.23
2019-04-28T00:21:04.428Z,992.20
2019-04-28T00:22:03.618Z,992.25
2019-04-28T00:23:04.194Z,992.19
2019-04-28T00:24:04.716Z,992.31
2019-04-28T00:25:03.565Z,992.20
2019-04-28T00:26:03.624Z,992.21
2019-04-28T00:27:03.620Z,992.23
2019-04-28T00:28:03.546Z,992.30
2019-04-28T00:29:03.590Z,992.22
2019-04-28T00:30:03.694Z,992.24
2019-04-28T00:31:03.549Z,992.32
2019-04-28T00:32:04.558Z,992.24
2019-04-28T00:33:03.567Z,992.25
2019-04-28T00:34:04.469Z,992.29
2019-04-28T00:35:03.530Z,992.32
2019-04-28T00:36:03.509Z,992.26
2019-04-28T00:37:03.584Z,992.23
2019-04-28T00:38:06.431Z,992.19
2019-04-28T00:39:04.489Z,992.27
2019-04-28T00:40:04.528Z,992.24
2019-04-28T00:41:03.485Z,992.24
2019-04-28T00:42:03.478Z,992.25
2019-04-28T00:43:03.528Z,992.28
2019-04-28T00:44:03.439Z,992.32
2019-04-28T00:45:03.533Z,992.26
2019-04-28T00:46:03.430Z,992.24
2019-04-28T00:47:03.430Z,992.25
2019-04-28T00:48:03.414Z,992.30
2019-04-28T00:49:03.416Z,992.35
2019-04-28T00:50:03.377Z,992.34
2019-04-28T00:51:03.637Z,992.33
2019-04-28T00:52:03.457Z,992.33
2019-04-28T00:55:01.186Z,992.34
2019-04-28T00:55:39.598Z,992.38
2019-04-28T00:56:42.027Z,992.35
2019-04-28T00:57:40.995Z,992.28
2019-04-28T00:58:41.684Z,992.34
2019-04-28T00:59:52.146Z,992.36
2019-04-28T01:00:41.631Z,992.32
2019-04-28T01:01:40.693Z,992.28
2019-04-28T01:02:41.248Z,992.39
2019-04-28T01:03:42.084Z,992.35
2019-04-28T01:04:41.271Z,992.35
2019-04-28T01:05:41.183Z,992.36
2019-04-28T01:06:40.575Z,992.26
2019-04-28T01:07:41.388Z,992.28
2019-04-28T01:08:39.634Z,992.30
2019-04-28T01:09:41.571Z,992.35
2019-04-28T01:10:41.056Z,992.29
2019-04-28T01:11:41.411Z,992.32
2019-04-28T01:12:41.131Z,992.29
2019-04-28T01:13:41.991Z,992.32
2019-04-28T01:14:40.976Z,992.22
2019-04-28T01:15:39.746Z,992.31
2019-04-28T01:16:40.547Z,992.34
2019-04-28T01:17:39.843Z,992.27
2019-04-28T01:18:40.610Z,992.28
2019-04-28T01:19:39.920Z,992.31
2019-04-28T01:22:15.075Z,992.27
2019-04-28T01:23:16.268Z,992.31
2019-04-28T01:24:32.109Z,992.31
2019-04-28T01:25:15.960Z,992.35
2019-04-28T01:26:15.935Z,992.36
2019-04-28T01:27:15.985Z,992.32
2019-04-28T01:28:15.951Z,992.27
2019-04-28T01:29:16.103Z,992.30
2019-04-28T01:30:16.871Z,992.31
2019-04-28T01:31:15.998Z,992.29
2019-04-28T01:32:16.025Z,992.30
2019-04-28T01:33:15.926Z,992.32
2019-04-28T01:34:15.952Z,992.31
2019-04-28T01:35:16.013Z,992.37
2019-04-28T01:36:15.895Z,992.34
2019-04-28T01:37:16.041Z,992.35
2019-04-28T01:38:15.890Z,992.28
2019-04-28T01:39:15.929Z,992.43
2019-04-28T01:40:15.920Z,992.42
2019-04-28T01:41:15.876Z,992.39
2019-04-28T01:42:15.807Z,992.31
2019-04-28T01:43:15.868Z,992.32
2019-04-28T01:44:15.803Z,992.38
2019-04-28T01:45:15.838Z,992.41
2019-04-28T01:46:15.833Z,992.32
2019-04-28T01:47:15.858Z,992.37
2019-04-28T01:48:15.862Z,992.43
2019-04-28T01:49:15.845Z,992.40
2019-04-28T01:50:15.888Z,992.41
2019-04-28T01:51:15.760Z,992.43
2019-04-28T01:52:15.799Z,992.42
2019-04-28T01:53:15.785Z,992.45
2019-04-28T01:54:16.361Z,992.47
2019-04-28T01:55:15.727Z,992.41
2019-04-28T01:56:16.532Z,992.47
2019-04-28T01:57:15.844Z,992.50
2019-04-28T01:58:16.535Z,992.50
2019-04-28T01:59:15.798Z,992.49
2019-04-28T02:00:22.910Z,992.45
2019-04-28T02:01:17.730Z,992.52
2019-04-28T02:02:15.770Z,992.44
2019-04-28T02:03:15.709Z,992.53
2019-04-28T02:04:15.715Z,992.49
2019-04-28T02:05:15.803Z,992.52
2019-04-28T02:06:15.731Z,992.50
2019-04-28T02:07:15.645Z,992.46
2019-04-28T02:08:15.751Z,992.51
2019-04-28T02:09:15.773Z,992.62
2019-04-28T02:10:15.662Z,992.62
2019-04-28T02:11:15.775Z,992.53
2019-04-28T02:12:15.650Z,992.58
2019-04-28T02:13:15.674Z,992.62
2019-04-28T02:14:15.647Z,992.68
2019-04-28T02:15:15.690Z,992.68
2019-04-28T02:16:15.616Z,992.66
2019-04-28T02:17:15.622Z,992.72
2019-04-28T02:18:15.671Z,992.65
2019-04-28T02:19:15.626Z,992.65
2019-04-28T02:20:15.598Z,992.63
2019-04-28T02:21:16.585Z,992.66
2019-04-28T02:22:15.606Z,992.71
2019-04-28T02:23:15.551Z,992.65
2019-04-28T02:24:16.587Z,992.65
2019-04-28T02:25:15.656Z,992.68
2019-04-28T02:26:15.577Z,992.78
2019-04-28T02:27:15.540Z,992.79
2019-04-28T02:28:16.484Z,992.72
2019-04-28T02:29:15.648Z,992.67
2019-04-28T02:30:15.592Z,992.72
2019-04-28T02:31:15.623Z,992.68
2019-04-28T02:32:15.588Z,992.65
2019-04-28T02:33:15.558Z,992.71
2019-04-28T02:34:15.582Z,992.69
2019-04-28T02:35:15.574Z,992.69
2019-04-28T02:36:15.719Z,992.73
2019-04-28T02:37:15.541Z,992.69
2019-04-28T02:38:15.556Z,992.72
2019-04-28T02:39:15.657Z,992.71
2019-04-28T02:40:15.512Z,992.75
2019-04-28T02:41:15.527Z,992.72
2019-04-28T02:42:15.537Z,992.65
2019-04-28T02:43:15.504Z,992.67
2019-04-28T02:44:15.544Z,992.75
2019-04-28T02:45:15.511Z,992.79
2019-04-28T02:46:15.564Z,992.73
2019-04-28T02:47:15.437Z,992.70
2019-04-28T02:48:15.417Z,992.74
2019-04-28T02:49:15.440Z,992.72
2019-04-28T02:50:15.540Z,992.77
2019-04-28T02:51:15.532Z,992.71
2019-04-28T02:52:15.396Z,992.76
2019-04-28T02:53:15.381Z,992.77
2019-04-28T02:54:15.422Z,992.76
2019-04-28T02:55:15.413Z,992.72
2019-04-28T02:56:15.422Z,992.78
2019-04-28T02:57:15.385Z,992.78
2019-04-28T02:58:15.388Z,992.70
2019-04-28T02:59:15.365Z,992.75
2019-04-28T03:00:15.330Z,992.82
2019-04-28T03:01:24.939Z,992.77
2019-04-28T03:02:17.367Z,992.77
2019-04-28T03:03:16.002Z,992.69
2019-04-28T03:04:15.348Z,992.71
2019-04-28T03:05:15.335Z,992.77
2019-04-28T03:06:15.343Z,992.78
2019-04-28T03:07:15.373Z,992.80
2019-04-28T03:08:15.280Z,992.72
2019-04-28T03:09:15.407Z,992.75
2019-04-28T03:10:15.281Z,992.70
2019-04-28T03:11:15.278Z,992.76
2019-04-28T03:12:15.261Z,992.67
2019-04-28T03:13:16.259Z,992.73
2019-04-28T03:14:15.258Z,992.74
2019-04-28T03:15:15.229Z,992.73
2019-04-28T03:16:15.236Z,992.73
2019-04-28T03:17:15.240Z,992.72
2019-04-28T03:18:15.274Z,992.77
2019-04-28T03:19:15.231Z,992.72
2019-04-28T03:20:15.245Z,992.77
2019-04-28T03:21:15.200Z,992.73
2019-04-28T03:22:15.182Z,992.81
2019-04-28T03:23:15.196Z,992.79
2019-04-28T03:24:15.196Z,992.77
2019-04-28T03:25:15.212Z,992.74
2019-04-28T03:26:15.204Z,992.78
2019-04-28T03:27:15.152Z,992.83
2019-04-28T03:28:15.218Z,992.78
2019-04-28T03:29:15.303Z,992.78
2019-04-28T03:30:15.177Z,992.89
2019-04-28T03:31:48.423Z,992.83
2019-04-28T03:32:32.403Z,992.82
2019-04-28T03:33:18.855Z,992.85
2019-04-28T03:34:22.878Z,992.90
2019-04-28T03:35:17.036Z,992.80
2019-04-28T03:36:16.032Z,992.86
2019-04-28T03:37:16.127Z,992.83
2019-04-28T03:38:15.118Z,992.91
2019-04-28T03:39:15.104Z,992.92
2019-04-28T03:40:15.112Z,992.91
2019-04-28T03:41:15.089Z,992.96
2019-04-28T03:42:15.127Z,992.91
2019-04-28T03:43:15.037Z,992.83
2019-04-28T03:44:16.058Z,992.88
2019-04-28T03:45:15.051Z,992.83
2019-04-28T03:46:15.045Z,992.86
2019-04-28T03:47:15.106Z,992.85
2019-04-28T03:48:15.074Z,992.94
2019-04-28T03:49:15.069Z,992.87
2019-04-28T03:50:15.055Z,992.91
2019-04-28T03:51:21.167Z,992.84
2019-04-28T03:52:16.090Z,992.92
2019-04-28T03:53:16.459Z,992.89
2019-04-28T03:54:14.986Z,992.85
2019-04-28T03:55:15.023Z,992.91
2019-04-28T03:56:15.017Z,992.98
2019-04-28T03:57:15.070Z,992.90
2019-04-28T03:58:15.979Z,992.82
2019-04-28T03:59:16.050Z,992.93
2019-04-28T04:00:15.048Z,992.92
2019-04-28T04:01:15.604Z,993.01
2019-04-28T04:02:14.985Z,992.94
2019-04-28T04:03:15.142Z,992.97
2019-04-28T04:04:14.969Z,992.94
2019-04-28T04:05:14.975Z,992.96
2019-04-28T04:06:14.915Z,993.00
2019-04-28T04:07:14.948Z,992.98
2019-04-28T04:08:14.990Z,992.96
2019-04-28T04:09:15.526Z,992.93
2019-04-28T04:10:14.979Z,993.00
2019-04-28T04:11:14.993Z,993.02
2019-04-28T04:12:15.026Z,992.96
2019-04-28T04:13:14.899Z,993.02
2019-04-28T04:14:14.937Z,993.02
2019-04-28T04:15:15.022Z,993.04
2019-04-28T04:16:15.988Z,993.10
2019-04-28T04:17:14.971Z,993.05
2019-04-28T04:18:14.902Z,993.07
2019-04-28T04:19:14.885Z,993.09
2019-04-28T04:20:14.893Z,993.11
2019-04-28T04:21:14.995Z,992.97
2019-04-28T04:22:14.853Z,992.98
2019-04-28T04:23:14.818Z,993.13
2019-04-28T04:24:14.907Z,993.06
2019-04-28T04:25:14.861Z,993.08
2019-04-28T04:26:14.918Z,993.04
2019-04-28T04:27:14.812Z,992.98
2019-04-28T04:28:14.781Z,993.11
2019-04-28T04:29:14.833Z,993.10
2019-04-28T04:30:14.851Z,993.04
2019-04-28T04:31:14.833Z,993.02
2019-04-28T04:32:22.619Z,993.01
2019-04-28T04:33:16.763Z,993.08
2019-04-28T04:34:14.800Z,993.11
2019-04-28T04:35:14.813Z,993.01
2019-04-28T04:36:14.753Z,993.03
2019-04-28T04:37:14.740Z,993.07
2019-04-28T04:38:14.793Z,993.12
2019-04-28T04:39:14.752Z,993.16
2019-04-28T04:40:14.768Z,993.09
2019-04-28T04:41:14.729Z,993.16
2019-04-28T04:42:14.754Z,993.12
2019-04-28T04:43:14.749Z,993.13
2019-04-28T04:44:14.721Z,993.14
2019-04-28T04:45:14.785Z,993.15
2019-04-28T04:46:14.778Z,993.16
2019-04-28T04:47:14.767Z,993.10
2019-04-28T04:48:15.771Z,993.08
2019-04-28T04:49:15.601Z,993.16
2019-04-28T04:50:14.728Z,993.13
2019-04-28T04:51:14.741Z,993.21
2019-04-28T04:52:14.714Z,993.17
2019-04-28T04:53:14.640Z,993.21
2019-04-28T04:54:15.552Z,993.24
2019-04-28T04:55:14.750Z,993.11
2019-04-28T04:56:14.714Z,993.19
2019-04-28T04:57:14.667Z,993.27
2019-04-28T04:58:14.669Z,993.27
2019-04-28T04:59:14.612Z,993.31
2019-04-28T05:00:14.665Z,993.24
2019-04-28T05:01:14.666Z,993.20
2019-04-28T05:02:26.543Z,993.26
2019-04-28T05:03:16.610Z,993.31
2019-04-28T05:05:02.908Z,993.27
2019-04-28T05:05:14.625Z,993.20
2019-04-28T05:06:14.549Z,993.25
2019-04-28T05:10:51.413Z,993.19
2019-04-28T05:11:26.446Z,993.18
2019-04-28T05:12:42.530Z,993.27
2019-04-28T05:13:27.511Z,993.25
2019-04-28T05:14:29.783Z,993.15
2019-04-28T05:15:27.646Z,993.24
2019-04-28T05:16:27.574Z,993.22
2019-04-28T05:17:27.566Z,993.11
2019-04-28T05:18:27.534Z,993.05
2019-04-28T05:19:27.547Z,993.11
2019-04-28T05:20:27.640Z,992.97
2019-04-28T05:21:31.067Z,993.00
2019-04-28T05:22:29.960Z,993.00
2019-04-28T05:23:27.520Z,993.02
2019-04-28T05:24:27.532Z,993.05
2019-04-28T05:25:30.875Z,993.06
2019-04-28T05:26:30.048Z,993.04
2019-04-28T05:28:19.723Z,993.02
2019-04-28T05:28:30.570Z,993.04
2019-04-28T05:29:47.353Z,993.05
2019-04-28T05:30:27.418Z,993.08
2019-04-28T05:31:27.448Z,993.04
2019-04-28T05:32:41.662Z,993.06
2019-04-28T05:33:33.369Z,993.00
2019-04-28T05:34:29.704Z,993.08
2019-04-28T05:35:29.316Z,993.10
2019-04-28T05:36:27.367Z,993.11
2019-04-28T05:37:27.412Z,993.14
2019-04-28T05:38:27.404Z,992.93
2019-04-28T05:39:27.392Z,992.78
2019-04-28T05:40:27.407Z,992.68
2019-04-28T05:41:27.343Z,992.65
2019-04-28T05:42:27.365Z,992.60
2019-04-28T05:43:27.375Z,992.48
2019-04-28T05:44:27.362Z,992.50
2019-04-28T05:45:27.431Z,992.50
2019-04-28T05:46:27.321Z,992.57
2019-04-28T05:47:27.308Z,992.67
2019-04-28T05:48:27.329Z,992.76
2019-04-28T05:49:27.305Z,992.74
2019-04-28T05:50:27.262Z,992.84
2019-04-28T05:51:27.337Z,992.88
2019-04-28T05:52:27.268Z,992.88
2019-04-28T05:53:27.320Z,992.95
2019-04-28T05:54:59.813Z,992.97
2019-04-28T05:55:27.195Z,993.02
2019-04-28T05:56:27.195Z,993.01
2019-04-28T05:57:27.203Z,992.93
2019-04-28T05:58:27.182Z,993.03
2019-04-28T05:59:27.176Z,993.09
2019-04-28T06:00:27.166Z,993.08
2019-04-28T06:01:27.151Z,993.08
2019-04-28T06:02:27.156Z,993.13
2019-04-28T06:03:27.134Z,993.16
2019-04-28T06:04:27.131Z,993.16
2019-04-28T06:05:27.123Z,993.16
2019-04-28T06:06:27.111Z,993.20
2019-04-28T06:07:27.126Z,993.23
2019-04-28T06:08:27.099Z,993.27
2019-04-28T06:09:27.098Z,993.27
2019-04-28T06:10:27.084Z,993.34
2019-04-28T06:11:27.132Z,993.30
2019-04-28T06:12:27.116Z,993.22
2019-04-28T06:13:27.090Z,993.32
2019-04-28T06:14:27.091Z,993.29
2019-04-28T06:15:27.081Z,993.33
2019-04-28T06:16:27.073Z,993.29
2019-04-28T06:17:27.069Z,993.32
2019-04-28T06:18:27.072Z,993.25
2019-04-28T06:19:27.057Z,993.31
2019-04-28T06:20:27.041Z,993.28
2019-04-28T06:21:28.046Z,993.32
2019-04-28T06:22:27.049Z,993.32
2019-04-28T06:23:27.041Z,993.39
2019-04-28T06:24:27.038Z,993.34
2019-04-28T06:25:27.025Z,993.41
2019-04-28T06:26:27.014Z,993.32
2019-04-28T06:27:27.007Z,993.35
2019-04-28T06:28:27.008Z,993.26
2019-04-28T06:29:26.988Z,993.28
2019-04-28T06:30:26.976Z,993.23
2019-04-28T06:31:26.973Z,993.26
2019-04-28T06:32:26.965Z,993.17
2019-04-28T06:33:26.974Z,993.19
2019-04-28T06:34:26.961Z,993.17
2019-04-28T06:35:26.937Z,993.08
2019-04-28T06:36:26.945Z,993.07
2019-04-28T06:37:26.934Z,993.07
2019-04-28T06:38:26.937Z,993.10
2019-04-28T06:39:26.921Z,993.10
2019-04-28T06:40:26.906Z,992.97
2019-04-28T06:41:26.931Z,993.04
2019-04-28T06:42:26.904Z,992.98
2019-04-28T06:43:26.908Z,993.06
2019-04-28T06:44:26.918Z,993.13
2019-04-28T06:45:26.904Z,993.05
2019-04-28T06:46:26.897Z,993.11
2019-04-28T06:47:26.893Z,993.07
2019-04-28T06:48:26.890Z,993.13
2019-04-28T06:49:26.874Z,993.10
2019-04-28T06:50:26.874Z,993.17
2019-04-28T06:51:26.857Z,993.14
2019-04-28T06:52:26.850Z,993.19
2019-04-28T06:53:26.863Z,993.33
2019-04-28T06:54:26.839Z,993.27
2019-04-28T06:55:26.827Z,993.31
2019-04-28T06:56:26.823Z,993.34
2019-04-28T06:57:26.824Z,993.43
2019-04-28T06:58:26.888Z,993.40
2019-04-28T06:59:26.811Z,993.43
2019-04-28T07:00:26.801Z,993.40
2019-04-28T07:01:26.793Z,993.51
2019-04-28T07:02:26.803Z,993.48
2019-04-28T07:03:26.814Z,993.54
2019-04-28T07:04:26.785Z,993.48
2019-04-28T07:05:26.779Z,993.61
2019-04-28T07:06:26.773Z,993.58
2019-04-28T07:07:26.760Z,993.61
2019-04-28T07:08:26.759Z,993.64
2019-04-28T07:09:26.833Z,993.63
2019-04-28T07:10:26.741Z,993.63
2019-04-28T07:11:26.732Z,993.65
2019-04-28T07:12:26.753Z,993.70
2019-04-28T07:13:26.744Z,993.68
2019-04-28T07:14:26.784Z,993.64
2019-04-28T07:15:26.728Z,993.73
2019-04-28T07:16:26.722Z,993.75
2019-04-28T07:17:26.712Z,993.76
2019-04-28T07:18:26.719Z,993.75
2019-04-28T07:19:26.712Z,993.72
2019-04-28T07:20:26.693Z,993.72
2019-04-28T07:21:26.684Z,993.82
2019-04-28T07:22:26.677Z,993.82
2019-04-28T07:23:26.671Z,993.83
2019-04-28T07:24:26.674Z,993.72
2019-04-28T07:25:26.660Z,993.82
2019-04-28T07:26:26.668Z,993.79
2019-04-28T07:27:26.643Z,993.73
2019-04-28T07:28:26.648Z,993.76
2019-04-28T07:29:26.641Z,993.83
2019-04-28T07:30:26.618Z,993.84
2019-04-28T07:31:26.610Z,993.84
2019-04-28T07:32:26.609Z,993.82
2019-04-28T07:33:35.920Z,993.79
2019-04-28T07:34:28.605Z,993.83
2019-04-28T07:35:26.585Z,993.84
2019-04-28T07:36:26.577Z,993.94
2019-04-28T07:37:26.572Z,993.91
2019-04-28T07:38:26.562Z,993.91
2019-04-28T07:39:26.576Z,993.90
2019-04-28T07:40:26.554Z,993.95
2019-04-28T07:41:26.550Z,993.89
2019-04-28T07:42:26.545Z,993.92
2019-04-28T07:43:26.544Z,993.96
2019-04-28T07:44:26.536Z,993.96
2019-04-28T07:45:26.515Z,993.96
2019-04-28T07:46:26.504Z,994.00
2019-04-28T07:47:26.497Z,993.93
2019-04-28T07:48:26.488Z,993.93
2019-04-28T07:49:26.530Z,994.01
2019-04-28T07:50:26.472Z,994.04
2019-04-28T07:51:26.465Z,994.02
2019-04-28T07:52:26.456Z,993.87
2019-04-28T07:53:26.448Z,993.97
2019-04-28T07:54:26.452Z,993.97
2019-04-28T07:55:26.432Z,994.00
2019-04-28T07:56:26.425Z,994.00
2019-04-28T07:57:26.434Z,993.98
2019-04-28T07:58:26.417Z,993.95
2019-04-28T07:59:26.417Z,993.85
2019-04-28T08:00:26.396Z,993.74
2019-04-28T08:01:26.385Z,993.68
2019-04-28T08:02:26.382Z,993.72
2019-04-28T08:03:26.469Z,993.60
2019-04-28T08:04:26.380Z,993.55
2019-04-28T08:05:26.364Z,993.63
2019-04-28T08:06:27.063Z,993.48
2019-04-28T08:07:27.336Z,993.39
2019-04-28T08:08:26.362Z,993.38
2019-04-28T08:09:26.367Z,993.43
2019-04-28T08:10:26.375Z,993.46
2019-04-28T08:11:26.335Z,993.46
2019-04-28T08:12:26.330Z,993.52
2019-04-28T08:13:26.327Z,993.46
2019-04-28T08:14:26.314Z,993.49
2019-04-28T08:15:26.328Z,993.49
2019-04-28T08:16:26.311Z,993.49
2019-04-28T08:17:26.305Z,993.52
2019-04-28T08:18:26.302Z,993.52
2019-04-28T08:19:26.320Z,993.57
2019-04-28T08:20:26.301Z,993.48
2019-04-28T08:21:26.277Z,993.49
2019-04-28T08:22:26.278Z,993.51
2019-04-28T08:23:26.319Z,993.53
2019-04-28T08:24:26.311Z,993.52
2019-04-28T08:25:26.271Z,993.42
2019-04-28T08:26:26.252Z,993.41
2019-04-28T08:27:26.258Z,993.39
2019-04-28T08:28:26.275Z,993.33
2019-04-28T08:29:26.255Z,993.34
2019-04-28T08:30:26.279Z,993.32
2019-04-28T08:31:26.263Z,993.32
2019-04-28T08:32:26.319Z,993.29
2019-04-28T08:33:26.264Z,993.31
2019-04-28T08:34:27.038Z,993.26
2019-04-28T08:35:26.691Z,993.25
2019-04-28T08:36:26.261Z,993.26
2019-04-28T08:37:26.442Z,993.21
2019-04-28T08:38:26.333Z,993.24
2019-04-28T08:39:26.823Z,993.27
2019-04-28T08:40:27.358Z,993.28
2019-04-28T08:41:26.424Z,993.33
2019-04-28T08:42:26.213Z,993.39
2019-04-28T08:43:26.240Z,993.34
2019-04-28T08:44:26.142Z,993.35
2019-04-28T08:45:26.161Z,993.45
2019-04-28T08:46:26.129Z,993.50
2019-04-28T08:47:26.112Z,993.56
2019-04-28T08:48:26.191Z,993.52
2019-04-28T08:49:27.041Z,993.63
2019-04-28T08:50:26.167Z,993.65
2019-04-28T08:51:26.435Z,993.67
2019-04-28T08:52:26.117Z,993.69
2019-04-28T08:53:26.367Z,993.73
2019-04-28T08:54:26.170Z,993.81
2019-04-28T08:55:26.084Z,993.85
2019-04-28T08:56:26.069Z,993.80
2019-04-28T08:57:26.038Z,993.86
2019-04-28T08:58:26.035Z,993.88
2019-04-28T08:59:26.046Z,993.85
2019-04-28T09:00:26.272Z,993.86
2019-04-28T09:01:26.170Z,993.87
2019-04-28T09:02:26.138Z,993.95
2019-04-28T09:03:26.255Z,993.95
2019-04-28T09:04:26.297Z,994.04
2019-04-28T09:05:27.046Z,993.99
2019-04-28T09:06:26.095Z,994.04
2019-04-28T09:07:26.240Z,994.04
2019-04-28T09:08:26.006Z,994.02
2019-04-28T09:09:26.118Z,994.11
2019-04-28T09:10:26.218Z,994.08
2019-04-28T09:11:26.039Z,994.13
2019-04-28T09:12:26.066Z,994.06
2019-04-28T09:13:26.807Z,994.06
2019-04-28T09:14:26.152Z,993.99
2019-04-28T09:15:25.994Z,993.98
2019-04-28T09:16:26.048Z,994.04
2019-04-28T09:17:26.155Z,994.02
2019-04-28T09:18:26.176Z,994.08
2019-04-28T09:19:26.186Z,994.04
2019-04-28T09:20:26.136Z,994.02
2019-04-28T09:21:25.971Z,993.98
2019-04-28T09:22:25.998Z,993.88
2019-04-28T09:23:25.927Z,993.91
2019-04-28T09:24:25.892Z,993.82
2019-04-28T09:25:26.073Z,993.88
2019-04-28T09:26:26.045Z,993.81
2019-04-28T09:27:25.995Z,993.77
2019-04-28T09:28:25.894Z,993.78
2019-04-28T09:29:25.874Z,993.80
2019-04-28T09:30:25.868Z,993.78
2019-04-28T09:31:25.964Z,993.86
2019-04-28T09:32:26.013Z,993.81
2019-04-28T09:33:25.929Z,993.83
2019-04-28T09:34:28.419Z,993.84
2019-04-28T09:35:27.025Z,993.85
2019-04-28T09:36:25.856Z,993.77
2019-04-28T09:37:25.820Z,993.84
2019-04-28T09:38:25.820Z,993.81
2019-04-28T09:39:25.999Z,993.87
2019-04-28T09:40:25.806Z,993.92
2019-04-28T09:41:25.810Z,993.89
2019-04-28T09:42:25.835Z,993.91
2019-04-28T09:43:25.778Z,993.92
2019-04-28T09:44:25.824Z,993.95
2019-04-28T09:45:25.840Z,993.97
2019-04-28T09:46:26.076Z,994.00
2019-04-28T09:47:25.795Z,994.00
2019-04-28T09:48:26.028Z,993.94
2019-04-28T09:49:25.910Z,994.05
2019-04-28T09:50:26.018Z,994.06
2019-04-28T09:51:25.761Z,994.06
2019-04-28T09:52:25.861Z,994.10
2019-04-28T09:53:25.732Z,994.04
2019-04-28T09:54:25.910Z,994.04
2019-04-28T09:55:25.807Z,994.09
2019-04-28T09:56:25.774Z,994.06
2019-04-28T09:57:25.715Z,994.05
2019-04-28T09:58:25.724Z,994.02
2019-04-28T09:59:25.714Z,994.04
2019-04-28T10:00:25.705Z,993.99
2019-04-28T10:01:25.729Z,994.05
2019-04-28T10:02:25.824Z,994.08
2019-04-28T10:03:25.689Z,994.11
2019-04-28T10:04:25.935Z,994.07
2019-04-28T10:05:25.657Z,994.09
2019-04-28T10:06:25.682Z,994.05
2019-04-28T10:07:25.639Z,994.06
2019-04-28T10:08:25.666Z,994.14
2019-04-28T10:09:25.651Z,994.17
2019-04-28T10:10:25.627Z,994.12
2019-04-28T10:11:30.729Z,994.12
2019-04-28T10:12:27.676Z,994.15
2019-04-28T10:13:26.702Z,994.18
2019-04-28T10:14:25.655Z,994.18
2019-04-28T10:15:25.703Z,994.21
2019-04-28T10:16:25.606Z,994.19
2019-04-28T10:17:25.567Z,994.22
2019-04-28T10:18:26.552Z,994.22
2019-04-28T10:19:25.546Z,994.23
2019-04-28T10:20:25.546Z,994.23
2019-04-28T10:21:25.556Z,994.21
2019-04-28T10:22:25.518Z,994.19
2019-04-28T10:23:25.516Z,994.20
2019-04-28T10:24:25.508Z,994.14
2019-04-28T10:25:25.510Z,994.18
2019-04-28T10:26:25.501Z,994.18
2019-04-28T10:27:25.513Z,994.18
2019-04-28T10:28:25.490Z,994.23
2019-04-28T10:29:25.482Z,994.18
2019-04-28T10:30:25.471Z,994.23
2019-04-28T10:31:25.465Z,994.21
2019-04-28T10:32:25.464Z,994.18
2019-04-28T10:33:25.465Z,994.16
2019-04-28T10:34:25.455Z,994.25
2019-04-28T10:35:25.441Z,994.18
2019-04-28T10:36:25.426Z,994.18
2019-04-28T10:37:25.439Z,994.17
2019-04-28T10:38:25.410Z,994.23
2019-04-28T10:39:25.423Z,994.22
2019-04-28T10:40:25.402Z,994.17
2019-04-28T10:41:25.408Z,994.25
2019-04-28T10:42:25.396Z,994.18
2019-04-28T10:43:25.386Z,994.23
2019-04-28T10:44:25.407Z,994.22
2019-04-28T10:45:25.359Z,994.24
2019-04-28T10:46:25.353Z,994.11
2019-04-28T10:47:25.358Z,994.11
2019-04-28T10:48:25.345Z,994.23
2019-04-28T10:49:25.331Z,994.17
2019-04-28T10:50:25.417Z,994.18
2019-04-28T10:51:25.337Z,994.29
2019-04-28T10:52:25.338Z,994.25
2019-04-28T10:53:25.307Z,994.20
2019-04-28T10:54:25.295Z,994.29
2019-04-28T10:55:25.306Z,994.34
2019-04-28T10:56:25.279Z,994.32
2019-04-28T10:57:25.305Z,994.31
2019-04-28T10:58:25.281Z,994.30
2019-04-28T10:59:25.264Z,994.28
2019-04-28T11:00:25.275Z,994.27
2019-04-28T11:01:25.273Z,994.28
2019-04-28T11:02:25.276Z,994.32
2019-04-28T11:03:25.240Z,994.36
2019-04-28T11:04:25.247Z,994.33
2019-04-28T11:05:25.238Z,994.31
2019-04-28T11:06:25.230Z,994.35
2019-04-28T11:07:25.233Z,994.24
2019-04-28T11:08:25.215Z,994.28
2019-04-28T11:09:30.703Z,994.26
2019-04-28T11:10:27.199Z,994.37
2019-04-28T11:11:25.197Z,994.32
2019-04-28T11:12:25.205Z,994.41
2019-04-28T11:13:25.170Z,994.37
2019-04-28T11:14:25.167Z,994.47
2019-04-28T11:15:25.160Z,994.50
2019-04-28T11:16:25.148Z,994.49
2019-04-28T11:17:25.180Z,994.49
2019-04-28T11:18:25.145Z,994.54
2019-04-28T11:19:25.124Z,994.57
2019-04-28T11:20:25.363Z,994.59
2019-04-28T11:21:26.099Z,994.60
2019-04-28T11:22:25.686Z,994.60
2019-04-28T11:23:25.109Z,994.59
2019-04-28T11:24:25.106Z,994.62
2019-04-28T11:25:25.083Z,994.57
2019-04-28T11:26:25.093Z,994.69
2019-04-28T11:27:25.084Z,994.66
2019-04-28T11:28:25.100Z,994.64
2019-04-28T11:29:25.083Z,994.62
2019-04-28T11:30:25.077Z,994.73
2019-04-28T11:31:25.065Z,994.62
2019-04-28T11:32:25.057Z,994.66
2019-04-28T11:33:25.088Z,994.63
2019-04-28T11:34:25.061Z,994.66
2019-04-28T11:35:25.059Z,994.69
2019-04-28T11:36:25.075Z,994.68
2019-04-28T11:37:25.078Z,994.64
2019-04-28T11:38:25.077Z,994.71
2019-04-28T11:39:25.049Z,994.69
2019-04-28T11:40:25.037Z,994.71
2019-04-28T11:41:25.030Z,994.76
2019-04-28T11:42:25.038Z,994.74
2019-04-28T11:43:25.027Z,994.72
2019-04-28T11:44:25.011Z,994.67
2019-04-28T11:45:25.002Z,994.63
2019-04-28T11:46:24.989Z,994.59
2019-04-28T11:47:24.981Z,994.60
2019-04-28T11:48:24.993Z,994.52
2019-04-28T11:49:24.973Z,994.57
2019-04-28T11:50:24.964Z,994.61
2019-04-28T11:51:24.958Z,994.52
2019-04-28T11:52:24.946Z,994.51
2019-04-28T11:53:24.955Z,994.58
2019-04-28T11:54:24.937Z,994.48
2019-04-28T11:55:57.418Z,994.48
2019-04-28T11:56:24.920Z,994.42
2019-04-28T11:57:24.914Z,994.51
2019-04-28T11:58:24.922Z,994.42
2019-04-28T11:59:24.896Z,994.48
2019-04-28T12:00:24.955Z,994.46
2019-04-28T12:01:24.906Z,994.39
2019-04-28T12:02:24.918Z,994.44
2019-04-28T12:03:24.924Z,994.47
2019-04-28T12:04:24.964Z,994.38
2019-04-28T12:05:34.386Z,994.33
2019-04-28T12:06:26.872Z,994.34
2019-04-28T12:07:24.845Z,994.41
2019-04-28T12:08:24.887Z,994.29
2019-04-28T12:09:24.837Z,994.29
2019-04-28T12:10:24.827Z,994.31
2019-04-28T12:11:24.807Z,994.28
2019-04-28T12:12:24.832Z,994.29
2019-04-28T12:13:24.807Z,994.29
2019-04-28T12:14:24.808Z,994.21
2019-04-28T12:15:24.812Z,994.25
2019-04-28T12:16:24.788Z,994.29
2019-04-28T12:17:24.771Z,994.22
2019-04-28T12:18:24.785Z,994.25
2019-04-28T12:19:24.779Z,994.27
2019-04-28T12:20:24.743Z,994.28
2019-04-28T12:21:24.737Z,994.35
2019-04-28T12:22:24.753Z,994.33
2019-04-28T12:23:24.734Z,994.30
2019-04-28T12:24:24.753Z,994.23
2019-04-28T12:25:24.752Z,994.31
2019-04-28T12:26:24.717Z,994.30
2019-04-28T12:27:24.706Z,994.34
2019-04-28T12:28:24.706Z,994.22
2019-04-28T12:29:24.723Z,994.18
2019-04-28T12:30:24.687Z,994.13
2019-04-28T12:31:24.703Z,994.22
2019-04-28T12:32:24.713Z,994.31
2019-04-28T12:33:24.672Z,994.30
2019-04-28T12:34:24.683Z,994.29
2019-04-28T12:35:24.684Z,994.32